Time;durP1;ratioP1;P1;durP2;ratioP2;P2;SDS_P1;SDS_P2;PMS_P1;PMS_P2;Temp;Humidity;BMP_temperature;BMP_pressure;BME280_temperature;BME280_humidity;BME280_pressure;Samples;Min_cycle;Max_cycle;Signal;HPM_P1;HPM_P2
2020/12/11 00:01:58;;;;;;;81.77;29.67;;;;;;;;;;5090691;28;20035;-42
2020/12/11 00:04:23;;;;;;;79.67;26.83;;;;;;;;;;5089846;28;20015;-40
2020/12/11 00:06:48;;;;;;;88.70;29.47;;;;;;;;;;5088080;28;20019;-39
2020/12/11 00:09:15;;;;;;;80.53;28.60;;;;;;;;;;5082669;28;20396;-44
2020/12/11 00:11:40;;;;;;;80.83;28.77;;;;;;;;;;5091120;28;20050;-43
2020/12/11 00:14:05;;;;;;;88.43;30.10;;;;;;;;;;5090303;28;20093;-40
2020/12/11 00:16:30;;;;;;;81.47;28.17;;;;;;;;;;5090461;28;20016;-41
2020/12/11 00:18:55;;;;;;;82.93;29.37;;;;;;;;;;5089478;28;20089;-48
2020/12/11 00:21:21;;;;;;;82.03;27.53;;;;;;;;;;5090988;28;20463;-39
2020/12/11 00:23:46;;;;;;;78.33;27.93;;;;;;;;;;5089246;28;20048;-42
2020/12/11 00:26:11;;;;;;;70.23;27.30;;;;;;;;;;5091456;28;20019;-41
2020/12/11 00:28:36;;;;;;;69.80;26.53;;;;;;;;;;5088943;28;20032;-39
2020/12/11 00:31:02;;;;;;;72.47;25.97;;;;;;;;;;5076758;28;20036;-44
2020/12/11 00:33:27;;;;;;;62.00;25.73;;;;;;;;;;5090602;28;20070;-43
2020/12/11 00:35:53;;;;;;;63.60;25.53;;;;;;;;;;5086895;28;20012;-39
2020/12/11 00:38:18;;;;;;;65.00;24.30;;;;;;;;;;5086229;28;20019;-41
2020/12/11 00:40:44;;;;;;;58.97;20.87;;;;;;;;;;5085668;28;20017;-39
2020/12/11 00:43:09;;;;;;;61.73;24.63;;;;;;;;;;5090421;28;20374;-41
2020/12/11 00:45:34;;;;;;;59.93;24.43;;;;;;;;;;5084372;28;20149;-41
2020/12/11 00:47:59;;;;;;;62.00;23.20;;;;;;;;;;5087730;28;20069;-44
2020/12/11 00:50:25;;;;;;;55.83;21.87;;;;;;;;;;5090590;28;20093;-41
2020/12/11 00:52:50;;;;;;;54.83;22.47;;;;;;;;;;5088091;28;20454;-45
2020/12/11 00:55:16;;;;;;;53.07;22.20;;;;;;;;;;5091540;28;20020;-42
2020/12/11 00:57:42;;;;;;;54.40;23.33;;;;;;;;;;5091395;28;20035;-43
2020/12/11 01:00:10;;;;;;;57.60;24.17;;;;;;;;;;5078024;28;20025;-44
2020/12/11 01:02:35;;;;;;;51.93;23.03;;;;;;;;;;5083880;28;20139;-44
2020/12/11 01:05:01;;;;;;;54.40;23.40;;;;;;;;;;5090672;28;20514;-42
2020/12/11 01:07:26;;;;;;;53.93;23.10;;;;;;;;;;5090015;28;20028;-43
2020/12/11 01:09:51;;;;;;;62.97;24.13;;;;;;;;;;5080480;28;20115;-43
2020/12/11 01:12:16;;;;;;;58.20;23.03;;;;;;;;;;5086475;28;20032;-46
2020/12/11 01:14:41;;;;;;;57.30;23.23;;;;;;;;;;5087992;28;20021;-40
2020/12/11 01:17:07;;;;;;;64.07;24.83;;;;;;;;;;5090734;28;20405;-40
2020/12/11 01:19:32;;;;;;;61.30;24.23;;;;;;;;;;5087345;28;20012;-46
2020/12/11 01:21:57;;;;;;;69.57;24.37;;;;;;;;;;5090260;28;20745;-43
2020/12/11 01:24:22;;;;;;;55.33;22.83;;;;;;;;;;5090305;28;20070;-46
2020/12/11 01:26:49;;;;;;;56.20;22.03;;;;;;;;;;5087708;28;20047;-42
2020/12/11 01:29:14;;;;;;;54.87;21.67;;;;;;;;;;5083515;28;20027;-43
2020/12/11 01:31:39;;;;;;;65.47;25.60;;;;;;;;;;5088068;28;20374;-41
2020/12/11 01:34:04;;;;;;;69.27;25.73;;;;;;;;;;5091082;28;20020;-42
2020/12/11 01:36:30;;;;;;;70.47;26.13;;;;;;;;;;5088989;28;20466;-45
2020/12/11 01:38:55;;;;;;;64.50;25.20;;;;;;;;;;5082391;28;20462;-41
2020/12/11 01:41:20;;;;;;;64.77;25.57;;;;;;;;;;5087222;28;20023;-42
2020/12/11 01:43:46;;;;;;;66.97;26.17;;;;;;;;;;5088160;28;20032;-44
2020/12/11 01:46:15;;;;;;;61.07;22.73;;;;;;;;;;5090059;28;20424;-41
2020/12/11 01:48:40;;;;;;;69.17;25.43;;;;;;;;;;5085032;28;20039;-43
2020/12/11 01:51:05;;;;;;;59.03;23.37;;;;;;;;;;5091073;28;20024;-44
2020/12/11 01:53:31;;;;;;;67.87;26.20;;;;;;;;;;5089893;28;20021;-40
2020/12/11 01:55:57;;;;;;;65.23;25.20;;;;;;;;;;5091216;28;20020;-43
2020/12/11 01:58:26;;;;;;;69.07;26.23;;;;;;;;;;5088492;28;20313;-45
2020/12/11 02:00:54;;;;;;;55.47;22.83;;;;;;;;;;5088095;28;20099;-44
2020/12/11 02:03:19;;;;;;;57.47;22.50;;;;;;;;;;5091409;28;20028;-45
2020/12/11 02:05:44;;;;;;;55.23;25.33;;;;;;;;;;5090415;28;20230;-45
2020/12/11 02:08:11;;;;;;;58.17;24.37;;;;;;;;;;5079572;28;20032;-41
2020/12/11 02:10:36;;;;;;;59.70;23.90;;;;;;;;;;5085772;28;20467;-40
2020/12/11 02:13:06;;;;;;;63.17;24.43;;;;;;;;;;5085672;28;20077;-55
2020/12/11 02:15:31;;;;;;;61.00;25.40;;;;;;;;;;5089046;28;20024;-56
2020/12/11 02:17:56;;;;;;;63.13;25.67;;;;;;;;;;5087112;28;20016;-52
2020/12/11 02:20:22;;;;;;;60.53;25.53;;;;;;;;;;5089978;28;20020;-53
2020/12/11 02:22:47;;;;;;;65.20;24.77;;;;;;;;;;5094740;28;20513;-53
2020/12/11 02:25:12;;;;;;;57.87;23.13;;;;;;;;;;5094517;28;20479;-55
2020/12/11 02:27:38;;;;;;;62.73;24.93;;;;;;;;;;5093650;28;20027;-52
2020/12/11 02:30:04;;;;;;;63.13;26.17;;;;;;;;;;5090295;28;20023;-56
2020/12/11 02:32:29;;;;;;;57.10;24.57;;;;;;;;;;5081792;28;20052;-56
2020/12/11 02:34:54;;;;;;;67.70;25.47;;;;;;;;;;5086481;28;20075;-55
2020/12/11 02:37:19;;;;;;;63.67;24.97;;;;;;;;;;5089251;28;20019;-53
2020/12/11 02:39:45;;;;;;;66.80;25.43;;;;;;;;;;5089921;28;20031;-55
2020/12/11 02:42:10;;;;;;;60.57;25.67;;;;;;;;;;5093582;28;20031;-55
2020/12/11 02:44:35;;;;;;;85.93;30.20;;;;;;;;;;5088880;28;20031;-53
2020/12/11 02:47:00;;;;;;;83.43;29.53;;;;;;;;;;5083501;28;20107;-54
2020/12/11 02:49:25;;;;;;;103.33;32.80;;;;;;;;;;5086754;28;20028;-57
2020/12/11 02:51:51;;;;;;;108.83;32.93;;;;;;;;;;5094407;28;20115;-53
2020/12/11 02:54:16;;;;;;;83.70;30.63;;;;;;;;;;5085191;28;20099;-54
2020/12/11 02:56:41;;;;;;;84.10;30.13;;;;;;;;;;5094149;28;20034;-53
2020/12/11 02:59:06;;;;;;;80.50;28.30;;;;;;;;;;5085930;28;20470;-55
2020/12/11 03:01:32;;;;;;;84.73;30.73;;;;;;;;;;5085203;28;20385;-54
2020/12/11 03:03:58;;;;;;;97.20;32.27;;;;;;;;;;5086552;28;20474;-52
2020/12/11 03:06:32;;;;;;;100.20;33.73;;;;;;;;;;5091255;28;20020;-56
2020/12/11 03:08:58;;;;;;;97.60;33.07;;;;;;;;;;5090648;28;20032;-53
2020/12/11 03:11:24;;;;;;;91.33;30.57;;;;;;;;;;5093701;28;20428;-54
2020/12/11 03:13:49;;;;;;;79.43;28.90;;;;;;;;;;5092371;28;20032;-55
2020/12/11 03:16:16;;;;;;;81.20;30.00;;;;;;;;;;5091331;28;20474;-56
2020/12/11 03:18:41;;;;;;;78.87;29.43;;;;;;;;;;5085450;28;20028;-50
2020/12/11 03:21:06;;;;;;;82.07;28.50;;;;;;;;;;5092848;28;20391;-54
2020/12/11 03:23:32;;;;;;;71.77;28.27;;;;;;;;;;5092955;28;20111;-55
2020/12/11 03:25:57;;;;;;;69.53;27.33;;;;;;;;;;5089754;28;20057;-56
2020/12/11 03:28:22;;;;;;;88.10;28.93;;;;;;;;;;5080786;28;20088;-55
2020/12/11 03:30:47;;;;;;;103.83;33.67;;;;;;;;;;5093075;28;20023;-52
2020/12/11 03:33:13;;;;;;;86.37;30.37;;;;;;;;;;5093095;28;20033;-53
2020/12/11 03:35:38;;;;;;;85.63;29.90;;;;;;;;;;5087241;28;20023;-55
2020/12/11 03:38:04;;;;;;;96.33;31.97;;;;;;;;;;5092004;28;20016;-52
2020/12/11 03:40:29;;;;;;;102.50;31.10;;;;;;;;;;5084136;28;20012;-53
2020/12/11 03:42:54;;;;;;;83.43;29.33;;;;;;;;;;5093925;28;20095;-53
2020/12/11 03:45:19;;;;;;;85.03;29.40;;;;;;;;;;5085037;28;20035;-57
2020/12/11 03:47:45;;;;;;;86.50;30.23;;;;;;;;;;5092442;28;20130;-53
2020/12/11 03:50:10;;;;;;;86.90;30.53;;;;;;;;;;5087142;28;20020;-55
2020/12/11 03:52:35;;;;;;;77.87;28.80;;;;;;;;;;5085754;28;20459;-54
2020/12/11 03:55:00;;;;;;;78.43;28.03;;;;;;;;;;5090470;28;20016;-54
2020/12/11 03:57:25;;;;;;;68.90;27.27;;;;;;;;;;5084746;28;20046;-56
2020/12/11 03:59:51;;;;;;;72.77;27.53;;;;;;;;;;5089535;28;20073;-52
2020/12/11 04:02:16;;;;;;;77.47;28.00;;;;;;;;;;5091966;28;20069;-54
2020/12/11 04:04:44;;;;;;;84.93;29.43;;;;;;;;;;5092234;28;20024;-56
2020/12/11 04:07:10;;;;;;;116.10;31.97;;;;;;;;;;5087872;28;20020;-53
2020/12/11 04:09:36;;;;;;;101.43;32.70;;;;;;;;;;5085885;28;20012;-53
2020/12/11 04:12:01;;;;;;;89.07;29.53;;;;;;;;;;5091589;28;20023;-53
2020/12/11 04:14:26;;;;;;;93.60;30.13;;;;;;;;;;5090000;28;20107;-53
2020/12/11 04:16:51;;;;;;;114.00;33.50;;;;;;;;;;5091800;28;20012;-51
2020/12/11 04:19:16;;;;;;;133.13;34.57;;;;;;;;;;5089606;28;20004;-52
2020/12/11 04:21:48;;;;;;;190.63;37.40;;;;;;;;;;5092099;28;20031;-56
2020/12/11 04:24:14;;;;;;;127.17;33.33;;;;;;;;;;5086590;28;20036;-55
2020/12/11 04:26:39;;;;;;;177.93;35.43;;;;;;;;;;5085995;28;20030;-55
2020/12/11 04:29:04;;;;;;;129.97;34.80;;;;;;;;;;5085716;28;20023;-52
2020/12/11 04:31:29;;;;;;;213.73;36.30;;;;;;;;;;5090592;28;20020;-56
2020/12/11 04:33:55;;;;;;;375.97;41.70;;;;;;;;;;5091845;28;20020;-56
2020/12/11 04:36:20;;;;;;;184.83;34.10;;;;;;;;;;5091739;28;20016;-50
2020/12/11 04:38:46;;;;;;;294.50;38.40;;;;;;;;;;5088743;28;20020;-53
2020/12/11 04:41:13;;;;;;;268.60;38.67;;;;;;;;;;5090911;28;20765;-56
2020/12/11 04:43:39;;;;;;;270.37;38.50;;;;;;;;;;5089523;28;20089;-55
2020/12/11 04:46:04;;;;;;;302.40;40.67;;;;;;;;;;5085272;28;20383;-52
2020/12/11 04:48:29;;;;;;;320.37;38.77;;;;;;;;;;5083219;28;20024;-56
2020/12/11 04:50:55;;;;;;;374.07;41.80;;;;;;;;;;5089883;28;20035;-50
2020/12/11 04:53:24;;;;;;;253.90;36.73;;;;;;;;;;5090479;28;20028;-54
2020/12/11 04:55:49;;;;;;;185.60;33.80;;;;;;;;;;5088373;28;20023;-52
2020/12/11 04:58:16;;;;;;;326.03;37.47;;;;;;;;;;5076806;28;20340;-53
2020/12/11 05:00:42;;;;;;;164.17;33.07;;;;;;;;;;5086752;28;20024;-56
2020/12/11 05:03:09;;;;;;;640.13;49.90;;;;;;;;;;5090000;28;20073;-54
2020/12/11 05:05:34;;;;;;;244.33;38.83;;;;;;;;;;5088668;28;20028;-51
2020/12/11 05:07:59;;;;;;;272.17;39.43;;;;;;;;;;5086196;28;20028;-52
2020/12/11 05:10:24;;;;;;;165.40;34.47;;;;;;;;;;5089891;28;20016;-55
2020/12/11 05:12:49;;;;;;;212.17;41.90;;;;;;;;;;5091198;28;20068;-55
2020/12/11 05:15:17;;;;;;;127.63;35.87;;;;;;;;;;5090502;28;20116;-55
2020/12/11 05:17:43;;;;;;;103.73;31.10;;;;;;;;;;5084554;28;20517;-54
2020/12/11 05:20:09;;;;;;;102.43;31.83;;;;;;;;;;5088526;28;20095;-56
2020/12/11 05:22:35;;;;;;;91.47;30.77;;;;;;;;;;5090950;28;20162;-55
2020/12/11 05:25:01;;;;;;;84.77;27.53;;;;;;;;;;5086191;28;20032;-55
2020/12/11 05:27:29;;;;;;;71.20;26.37;;;;;;;;;;5086231;28;20535;-54
2020/12/11 05:29:55;;;;;;;68.63;27.00;;;;;;;;;;5088950;28;20028;-51
2020/12/11 05:32:37;;;;;;;63.20;25.63;;;;;;;;;;5090978;28;20018;-56
2020/12/11 05:35:03;;;;;;;64.23;23.70;;;;;;;;;;5085530;28;20475;-51
2020/12/11 05:37:28;;;;;;;59.37;23.50;;;;;;;;;;5089105;28;20581;-52
2020/12/11 05:39:54;;;;;;;48.40;21.03;;;;;;;;;;5088848;28;20103;-55
2020/12/11 05:42:19;;;;;;;51.13;21.70;;;;;;;;;;5090781;28;20023;-56
2020/12/11 05:44:44;;;;;;;40.83;19.60;;;;;;;;;;5090683;28;20039;-56
2020/12/11 05:47:23;;;;;;;40.87;17.87;;;;;;;;;;5088572;28;20213;-53
2020/12/11 05:49:48;;;;;;;36.67;17.33;;;;;;;;;;5082108;28;20462;-55
2020/12/11 05:52:18;;;;;;;37.50;17.83;;;;;;;;;;5087874;28;20016;-53
2020/12/11 05:54:47;;;;;;;45.80;19.70;;;;;;;;;;5087811;28;20024;-55
2020/12/11 05:57:13;;;;;;;48.87;21.43;;;;;;;;;;5093521;28;20054;-52
2020/12/11 05:59:39;;;;;;;50.40;22.20;;;;;;;;;;5090936;28;20031;-54
2020/12/11 06:02:04;;;;;;;47.97;23.07;;;;;;;;;;5093726;28;20028;-55
2020/12/11 06:04:30;;;;;;;52.70;24.87;;;;;;;;;;5092951;28;20023;-54
2020/12/11 06:06:56;;;;;;;51.17;23.17;;;;;;;;;;5092508;28;20412;-54
2020/12/11 06:09:27;;;;;;;52.07;23.83;;;;;;;;;;5086893;28;20032;-54
2020/12/11 06:11:56;;;;;;;48.10;22.63;;;;;;;;;;5089976;28;20463;-54
2020/12/11 06:14:22;;;;;;;50.20;24.00;;;;;;;;;;5086774;28;20483;-53
2020/12/11 06:16:48;;;;;;;45.37;22.17;;;;;;;;;;5082993;28;20024;-54
2020/12/11 06:19:15;;;;;;;51.47;23.50;;;;;;;;;;5082775;28;20386;-57
2020/12/11 06:21:42;;;;;;;45.23;21.13;;;;;;;;;;5092996;28;20555;-55
2020/12/11 06:24:26;;;;;;;42.23;21.10;;;;;;;;;;5086519;28;20051;-55
2020/12/11 06:26:55;;;;;;;28.80;15.30;;;;;;;;;;5094964;28;20073;-57
2020/12/11 06:29:30;;;;;;;26.00;14.80;;;;;;;;;;5086662;28;20028;-55
2020/12/11 06:31:56;;;;;;;28.52;14.85;;;;;;;;;;5092135;28;20027;-54
2020/12/11 06:34:22;;;;;;;26.83;14.60;;;;;;;;;;5094668;28;20024;-56
2020/12/11 06:36:48;;;;;;;26.47;14.87;;;;;;;;;;5093000;28;20016;-56
2020/12/11 06:39:32;;;;;;;28.00;15.67;;;;;;;;;;5090354;28;20064;-55
2020/12/11 06:41:58;;;;;;;27.40;16.30;;;;;;;;;;5089695;28;20586;-55
2020/12/11 06:44:23;;;;;;;27.40;14.83;;;;;;;;;;5086042;28;20096;-55
2020/12/11 06:47:04;;;;;;;25.57;13.50;;;;;;;;;;5088472;28;20024;-55
2020/12/11 06:49:29;;;;;;;24.40;13.27;;;;;;;;;;5085164;28;20032;-55
2020/12/11 06:51:54;;;;;;;26.20;13.57;;;;;;;;;;5088972;28;20024;-52
2020/12/11 06:54:23;;;;;;;22.80;13.63;;;;;;;;;;5093558;28;20022;-54
2020/12/11 06:56:48;;;;;;;23.77;13.37;;;;;;;;;;5086588;28;20058;-55
2020/12/11 06:59:23;;;;;;;22.57;12.93;;;;;;;;;;5081801;28;20028;-57
2020/12/11 07:01:48;;;;;;;;;;;;;;;;;;5087792;28;20391;-56
2020/12/11 07:04:14;;;;;;;22.83;12.77;;;;;;;;;;5082162;28;20110;-53
2020/12/11 07:06:44;;;;;;;23.93;12.33;;;;;;;;;;5087265;28;20024;-54
2020/12/11 07:09:10;;;;;;;23.47;12.20;;;;;;;;;;5084904;28;20490;-52
2020/12/11 07:11:35;;;;;;;24.47;12.20;;;;;;;;;;5083263;28;20029;-51
2020/12/11 07:14:00;;;;;;;22.23;11.90;;;;;;;;;;5081505;28;20024;-55
2020/12/11 07:16:25;;;;;;;21.90;11.67;;;;;;;;;;5085426;28;20027;-53
2020/12/11 07:18:51;;;;;;;24.20;12.93;;;;;;;;;;5080945;28;20024;-51
2020/12/11 07:21:17;;;;;;;19.30;11.93;;;;;;;;;;5081741;28;20518;-54
2020/12/11 07:23:42;;;;;;;22.53;13.10;;;;;;;;;;5084634;28;20048;-57
2020/12/11 07:26:08;;;;;;;18.93;11.33;;;;;;;;;;5086393;28;20112;-55
2020/12/11 07:28:33;;;;;;;22.33;12.17;;;;;;;;;;5079943;28;20067;-50
2020/12/11 07:30:59;;;;;;;19.57;11.67;;;;;;;;;;5085328;28;20023;-56
2020/12/11 07:33:31;;;;;;;27.43;12.97;;;;;;;;;;5083841;28;20020;-57
2020/12/11 07:35:59;;;;;;;20.90;12.33;;;;;;;;;;5086376;28;20016;-52
2020/12/11 07:38:26;;;;;;;20.10;12.13;;;;;;;;;;5083147;28;20212;-56
2020/12/11 07:40:53;;;;;;;19.67;11.13;;;;;;;;;;5086291;28;20030;-53
2020/12/11 07:43:18;;;;;;;20.87;12.07;;;;;;;;;;5088879;28;20024;-53
2020/12/11 07:45:45;;;;;;;18.40;11.53;;;;;;;;;;5091286;28;20028;-55
2020/12/11 07:48:11;;;;;;;18.53;11.63;;;;;;;;;;5080589;28;20107;-54
2020/12/11 07:50:36;;;;;;;19.97;11.67;;;;;;;;;;5089121;28;20115;-50
2020/12/11 07:53:06;;;;;;;21.43;12.77;;;;;;;;;;5085402;28;20027;-54
2020/12/11 07:55:31;;;;;;;18.67;11.83;;;;;;;;;;5088524;28;20028;-48
2020/12/11 07:57:57;;;;;;;19.03;10.67;;;;;;;;;;5091799;28;20378;-54
2020/12/11 08:00:22;;;;;;;17.93;11.77;;;;;;;;;;5087007;28;20017;-51
2020/12/11 08:03:08;;;;;;;18.20;10.93;;;;;;;;;;5087367;28;20106;-51
2020/12/11 08:05:34;;;;;;;17.43;11.47;;;;;;;;;;5086027;28;20155;-53
2020/12/11 08:08:00;;;;;;;17.70;11.13;;;;;;;;;;5079282;28;20066;-52
2020/12/11 08:10:33;;;;;;;20.03;11.87;;;;;;;;;;5090754;28;20024;-54
2020/12/11 08:13:06;;;;;;;18.63;11.60;;;;;;;;;;5086060;28;20033;-55
2020/12/11 08:15:32;;;;;;;16.73;11.00;;;;;;;;;;5086026;28;20035;-54
2020/12/11 08:18:10;;;;;;;16.83;10.10;;;;;;;;;;5081350;28;20027;-50
2020/12/11 08:20:48;;;;;;;20.90;11.07;;;;;;;;;;5089475;28;20028;-56
2020/12/11 08:23:17;;;;;;;18.37;10.97;;;;;;;;;;5088257;28;20059;-55
2020/12/11 08:25:43;;;;;;;17.13;11.50;;;;;;;;;;5090388;28;20051;-57
2020/12/11 08:28:08;;;;;;;19.00;11.93;;;;;;;;;;5089535;28;20064;-57
2020/12/11 08:30:34;;;;;;;18.87;12.13;;;;;;;;;;5085692;28;20565;-48
2020/12/11 08:33:07;;;;;;;18.00;11.10;;;;;;;;;;5086474;28;20475;-56
2020/12/11 08:35:33;;;;;;;19.10;10.40;;;;;;;;;;5091043;28;20024;-54
2020/12/11 08:37:59;;;;;;;16.83;10.80;;;;;;;;;;5087607;28;20020;-49
2020/12/11 08:40:29;;;;;;;18.43;10.57;;;;;;;;;;5085267;28;20024;-51
2020/12/11 08:45:52;;;;;;;12.80;9.63;;;;;;;;;;5087917;28;20035;-53
2020/12/11 08:48:44;;;;;;;15.83;11.00;;;;;;;;;;5084844;28;20024;-50
2020/12/11 08:51:05;;;;;;;17.52;9.50;;;;;;;;;;5079703;28;20528;-55
2020/12/11 08:53:34;;;;;;;15.10;9.50;;;;;;;;;;5087692;28;20036;-52
2020/12/11 08:56:01;;;;;;;18.87;10.87;;;;;;;;;;5083379;28;20016;-56
2020/12/11 08:58:26;;;;;;;13.90;9.37;;;;;;;;;;5083623;28;20032;-56
2020/12/11 09:00:51;;;;;;;16.67;9.33;;;;;;;;;;5087210;28;20023;-52
2020/12/11 09:03:17;;;;;;;20.40;10.20;;;;;;;;;;5086138;28;20016;-53
2020/12/11 09:05:42;;;;;;;16.27;9.90;;;;;;;;;;5085374;28;20031;-54
2020/12/11 09:08:08;;;;;;;14.87;9.47;;;;;;;;;;5092606;28;20474;-53
2020/12/11 09:10:33;;;;;;;14.87;10.30;;;;;;;;;;5085985;28;20064;-55
2020/12/11 09:12:58;;;;;;;14.90;9.47;;;;;;;;;;5085842;28;20050;-52
2020/12/11 09:15:23;;;;;;;13.23;8.73;;;;;;;;;;5096490;28;20120;-52
2020/12/11 09:17:49;;;;;;;14.97;9.27;;;;;;;;;;5086755;28;20028;-52
2020/12/11 09:20:14;;;;;;;15.53;9.33;;;;;;;;;;5082654;28;20046;-55
2020/12/11 09:22:39;;;;;;;16.90;8.67;;;;;;;;;;5083684;28;20477;-49
2020/12/11 09:25:05;;;;;;;12.10;8.63;;;;;;;;;;5087627;28;20028;-52
2020/12/11 09:27:31;;;;;;;10.93;7.17;;;;;;;;;;5084448;28;20031;-50
2020/12/11 09:30:08;;;;;;;9.47;7.00;;;;;;;;;;5090850;28;20047;-50
2020/12/11 09:32:44;;;;;;;9.23;6.77;;;;;;;;;;5089371;28;20553;-50
2020/12/11 09:35:10;;;;;;;9.67;6.20;;;;;;;;;;5093300;28;20020;-53
2020/12/11 09:37:35;;;;;;;9.60;7.13;;;;;;;;;;5094569;28;20023;-55
2020/12/11 09:40:00;;;;;;;9.57;6.87;;;;;;;;;;5091285;28;20042;-53
2020/12/11 09:45:08;;;;;;;8.93;6.90;;;;;;;;;;5094614;28;20021;-55
2020/12/11 09:54:57;;;;;;;10.37;6.60;;;;;;;;;;5091150;28;20016;-52
2020/12/11 09:57:22;;;;;;;10.10;7.23;;;;;;;;;;5092595;28;20448;-55
2020/12/11 09:59:50;;;;;;;11.17;7.90;;;;;;;;;;5090987;28;20024;-53
2020/12/11 10:04:53;;;;;;;10.73;9.00;;;;;;;;;;5093065;28;20298;-52
2020/12/11 10:07:18;;;;;;;11.87;8.80;;;;;;;;;;5089956;28;20109;-54
2020/12/11 10:09:43;;;;;;;12.10;7.73;;;;;;;;;;5092283;28;20447;-53
2020/12/11 10:12:09;;;;;;;11.37;7.73;;;;;;;;;;5092768;28;20026;-51
2020/12/11 10:14:45;;;;;;;11.80;9.33;;;;;;;;;;5093371;28;20413;-51
2020/12/11 10:17:10;;;;;;;11.13;8.53;;;;;;;;;;5092750;28;20417;-54
2020/12/11 10:19:36;;;;;;;12.53;7.87;;;;;;;;;;5091410;28;20031;-51
2020/12/11 10:22:01;;;;;;;12.83;9.13;;;;;;;;;;5094893;28;20020;-48
2020/12/11 10:24:26;;;;;;;12.40;9.03;;;;;;;;;;5091983;28;20093;-53
2020/12/11 10:26:52;;;;;;;12.00;9.10;;;;;;;;;;5093794;28;20031;-49
2020/12/11 10:29:17;;;;;;;14.37;10.07;;;;;;;;;;5088187;28;20024;-52
2020/12/11 10:31:42;;;;;;;12.17;8.57;;;;;;;;;;5089715;28;20078;-52
2020/12/11 10:34:10;;;;;;;15.10;9.87;;;;;;;;;;5087795;28;20016;-55
2020/12/11 10:36:35;;;;;;;13.60;9.83;;;;;;;;;;5091086;28;20020;-51
2020/12/11 10:39:00;;;;;;;13.67;9.47;;;;;;;;;;5083775;28;20034;-51
2020/12/11 10:41:26;;;;;;;13.70;9.33;;;;;;;;;;5091167;28;20028;-52
2020/12/11 10:43:51;;;;;;;15.27;9.67;;;;;;;;;;5085611;28;20023;-50
2020/12/11 10:46:17;;;;;;;14.47;11.47;;;;;;;;;;5091594;28;20090;-56
2020/12/11 10:48:42;;;;;;;13.67;10.77;;;;;;;;;;5089395;28;20031;-54
2020/12/11 10:51:15;;;;;;;12.10;9.30;;;;;;;;;;5089863;28;20016;-49
2020/12/11 10:53:40;;;;;;;14.40;10.33;;;;;;;;;;5088555;28;20055;-53
2020/12/11 10:56:06;;;;;;;14.00;11.70;;;;;;;;;;5080572;28;20462;-49
2020/12/11 10:58:31;;;;;;;13.87;10.57;;;;;;;;;;5088587;28;20028;-50
2020/12/11 11:00:56;;;;;;;14.80;10.70;;;;;;;;;;5092603;28;20077;-53
2020/12/11 11:03:22;;;;;;;15.07;10.93;;;;;;;;;;5091306;28;20026;-53
2020/12/11 11:05:47;;;;;;;12.77;10.83;;;;;;;;;;5092956;28;20016;-50
2020/12/11 11:08:12;;;;;;;14.10;10.80;;;;;;;;;;5088672;28;20024;-53
2020/12/11 11:10:43;;;;;;;16.50;11.07;;;;;;;;;;5090648;28;20027;-53
2020/12/11 11:13:41;;;;;;;14.50;11.00;;;;;;;;;;5092463;28;20028;-54
2020/12/11 11:16:07;;;;;;;17.13;11.43;;;;;;;;;;5082925;28;20417;-54
2020/12/11 11:18:41;;;;;;;13.47;10.87;;;;;;;;;;5089105;28;20012;-51
2020/12/11 11:23:53;;;;;;;16.93;10.57;;;;;;;;;;5071084;28;620739;-54
2020/12/11 11:28:53;;;;;;;14.23;9.63;;;;;;;;;;5080091;28;20016;-50
2020/12/11 11:31:18;;;;;;;16.07;10.67;;;;;;;;;;5093402;28;20519;-53
2020/12/11 11:33:45;;;;;;;15.70;10.83;;;;;;;;;;5087513;28;20070;-53
2020/12/11 11:36:10;;;;;;;13.60;9.40;;;;;;;;;;5089819;28;20012;-53
2020/12/11 11:38:36;;;;;;;13.90;10.60;;;;;;;;;;5089626;28;20205;-56
2020/12/11 11:41:02;;;;;;;13.97;11.70;;;;;;;;;;5084905;28;20469;-54
2020/12/11 11:46:18;;;;;;;13.67;11.20;;;;;;;;;;5069130;28;20032;-56
2020/12/11 11:48:45;;;;;;;14.17;11.10;;;;;;;;;;5080161;28;20019;-55
2020/12/11 11:51:19;;;;;;;14.20;10.33;;;;;;;;;;5100697;28;20016;-55
2020/12/11 11:53:45;;;;;;;15.77;11.27;;;;;;;;;;5091134;28;20489;-55
2020/12/11 11:56:10;;;;;;;12.13;9.30;;;;;;;;;;5092630;28;20049;-50
2020/12/11 11:58:35;;;;;;;13.03;9.67;;;;;;;;;;5089551;28;20574;-55
2020/12/11 12:01:00;;;;;;;11.50;9.00;;;;;;;;;;5090443;28;20371;-54
2020/12/11 12:03:25;;;;;;;17.60;11.70;;;;;;;;;;5081201;28;20429;-51
2020/12/11 12:05:51;;;;;;;12.60;9.63;;;;;;;;;;5086677;28;20114;-53
2020/12/11 12:08:20;;;;;;;14.80;10.27;;;;;;;;;;5089253;28;20023;-59
2020/12/11 12:10:45;;;;;;;16.97;10.60;;;;;;;;;;5081389;28;20251;-57
2020/12/11 12:13:10;;;;;;;12.87;8.97;;;;;;;;;;5092055;28;20112;-55
2020/12/11 12:15:36;;;;;;;13.30;8.95;;;;;;;;;;5091971;28;20020;-54
2020/12/11 12:18:07;;;;;;;12.67;8.97;;;;;;;;;;5091110;28;20467;-56
2020/12/11 12:31:01;;;;;;;11.27;8.23;;;;;;;;;;5088828;28;20099;-56
2020/12/11 12:34:09;;;;;;;11.20;8.87;;;;;;;;;;5085028;28;20028;-57
2020/12/11 12:39:02;;;;;;;12.20;7.90;;;;;;;;;;5083197;28;20059;-52
2020/12/11 12:44:11;;;;;;;8.37;6.83;;;;;;;;;;5085915;28;20032;-55
2020/12/11 12:46:36;;;;;;;12.17;7.47;;;;;;;;;;5091174;28;20028;-57
2020/12/11 12:49:02;;;;;;;9.73;7.13;;;;;;;;;;5088680;28;20020;-56
2020/12/11 12:51:27;;;;;;;9.37;6.80;;;;;;;;;;5090811;28;20087;-57
2020/12/11 12:53:52;;;;;;;9.57;6.83;;;;;;;;;;5091783;28;20043;-56
2020/12/11 12:59:07;;;;;;;11.50;7.57;;;;;;;;;;5088806;28;20031;-56
2020/12/11 13:01:53;;;;;;;9.87;7.00;;;;;;;;;;5091055;28;20095;-53
2020/12/11 13:04:42;;;;;;;10.90;8.00;;;;;;;;;;5091288;28;20065;-57
2020/12/11 13:07:06;;;;;;;10.30;7.13;;;;;;;;;;5082672;28;20099;-57
2020/12/11 13:09:31;;;;;;;12.20;8.10;;;;;;;;;;5087408;28;20031;-56
2020/12/11 13:11:56;;;;;;;10.67;8.60;;;;;;;;;;5089814;28;20509;-57
2020/12/11 13:14:21;;;;;;;10.25;7.90;;;;;;;;;;5091246;28;20050;-58
2020/12/11 13:16:47;;;;;;;8.40;6.77;;;;;;;;;;5080227;28;20024;-55
2020/12/11 13:19:15;;;;;;;9.43;6.97;;;;;;;;;;5087393;28;20013;-57
2020/12/11 13:21:56;;;;;;;11.33;9.10;;;;;;;;;;5091257;28;20351;-55
2020/12/11 13:27:08;;;;;;;11.73;8.40;;;;;;;;;;5089257;28;20527;-56
2020/12/11 13:29:34;;;;;;;11.00;8.63;;;;;;;;;;5081133;28;20012;-55
2020/12/11 13:32:00;;;;;;;11.18;8.32;;;;;;;;;;5083901;28;20389;-56
2020/12/11 13:34:25;;;;;;;13.07;9.50;;;;;;;;;;5086265;28;20017;-57
2020/12/11 13:36:50;;;;;;;11.70;9.18;;;;;;;;;;5085297;28;20035;-56
2020/12/11 13:39:16;;;;;;;12.02;9.25;;;;;;;;;;5085876;28;20047;-55
2020/12/11 13:41:41;;;;;;;13.02;8.85;;;;;;;;;;5089399;28;20051;-57
2020/12/11 13:44:06;;;;;;;11.40;8.82;;;;;;;;;;5084939;28;20012;-54
2020/12/11 13:46:31;;;;;;;12.07;9.32;;;;;;;;;;5089776;28;20039;-56
2020/12/11 13:48:56;;;;;;;13.00;8.98;;;;;;;;;;5087978;28;20024;-57
2020/12/11 13:51:22;;;;;;;14.10;9.80;;;;;;;;;;5091458;28;20334;-54
2020/12/11 13:53:47;;;;;;;11.55;9.02;;;;;;;;;;5089612;28;20430;-56
2020/12/11 13:56:15;;;;;;;13.80;10.40;;;;;;;;;;5084916;28;20070;-53
2020/12/11 13:58:41;;;;;;;13.50;9.75;;;;;;;;;;5087653;28;20028;-55
2020/12/11 14:01:09;;;;;;;12.10;8.30;;;;;;;;;;5088509;28;20395;-53
2020/12/11 14:03:34;;;;;;;14.43;8.73;;;;;;;;;;5085126;28;20028;-53
2020/12/11 14:05:59;;;;;;;13.60;8.90;;;;;;;;;;5090319;28;20107;-55
2020/12/11 14:08:24;;;;;;;13.67;9.50;;;;;;;;;;5087109;28;20016;-49
2020/12/11 14:10:50;;;;;;;14.48;9.82;;;;;;;;;;5091401;28;20370;-56
2020/12/11 14:13:15;;;;;;;14.25;9.90;;;;;;;;;;5091048;28;20032;-55
2020/12/11 14:15:40;;;;;;;14.53;10.77;;;;;;;;;;5087450;28;20008;-52
2020/12/11 14:18:13;;;;;;;15.43;9.82;;;;;;;;;;5092573;28;20474;-53
2020/12/11 14:23:10;;;;;;;17.10;11.90;;;;;;;;;;5088366;28;20109;-54
2020/12/11 14:25:44;;;;;;;15.98;10.90;;;;;;;;;;5094421;28;20028;-55
2020/12/11 14:28:10;;;;;;;16.73;11.60;;;;;;;;;;5071556;28;20111;-55
2020/12/11 14:30:35;;;;;;;17.88;12.23;;;;;;;;;;5088153;28;20123;-56
2020/12/11 14:33:00;;;;;;;18.77;13.10;;;;;;;;;;5093570;28;20070;-55
2020/12/11 14:35:25;;;;;;;17.50;12.90;;;;;;;;;;5091789;28;21660;-54
2020/12/11 14:37:51;;;;;;;18.63;13.33;;;;;;;;;;5074859;28;20021;-52
2020/12/11 14:40:17;;;;;;;21.47;13.57;;;;;;;;;;5090356;28;20099;-50
2020/12/11 14:42:43;;;;;;;19.87;12.00;;;;;;;;;;5086433;28;20363;-55
2020/12/11 14:45:08;;;;;;;22.08;14.35;;;;;;;;;;5081178;28;20036;-55
2020/12/11 14:47:33;;;;;;;19.58;13.73;;;;;;;;;;5083699;28;20020;-53
2020/12/11 14:49:58;;;;;;;20.67;12.63;;;;;;;;;;5088565;28;20020;-50
2020/12/11 14:52:24;;;;;;;19.17;11.85;;;;;;;;;;5093252;28;20035;-55
2020/12/11 14:54:50;;;;;;;22.02;14.70;;;;;;;;;;5094275;28;20035;-54
2020/12/11 14:57:15;;;;;;;19.17;14.30;;;;;;;;;;5093842;28;20462;-56
2020/12/11 14:59:40;;;;;;;20.53;13.03;;;;;;;;;;5090973;28;20016;-56
2020/12/11 15:02:06;;;;;;;17.53;11.50;;;;;;;;;;5086747;28;20462;-56
2020/12/11 15:04:31;;;;;;;22.02;13.98;;;;;;;;;;5085429;28;20024;-56